Darby, MT

11:08 AM MDT on August 22, 2014 (GMT -0600)
Lemhi County | Change Station
CLOSE
Current Station
Airport
Location: Salmon,
Elevation: 4045 ft
Nearby Weather Stations
Active Advisory: Areal Flood Watch

Elev 4045 ft 45.12 °N, 113.88 °W | Updated 13 minutes ago

Clear
Clear
63 °F
Feels Like 63 °F
N
4
Wind Variable Wind from NW

Today
High -- | Low -- °F
--% Chance of Precip.
Yesterday
High -- | Low -- °F
Precip. -- in
6:45 AM 8:33 PM
Waning Crescent, 7% visible
Pressure 30.00 in
Visibility 10.0 miles
Clouds Clear
Dew Point 52 °F
Humidity 68%
Rainfall 0.00 in
Snow Depth 0 in
UV 6 out of 12
Pollen 4.40 out of 12
Air Quality Not available.
Flu Activity Not available.
METAR KSMN 221655Z AUTO 32003KT 10SM CLR 17/11 A3000 RMK AO1

More Conditions Fewer Conditions

Pressure 30.00 in
Visibility 10.0 miles
Clouds Clear
Dew Point 52 °F
Humidity 68%
Rainfall 0.00 in
Snow Depth 0 in
UV 6 out of 12
Pollen 4.40 out of 12
Air Quality Not available.
Flu Activity Not available.
METAR KSMN 221655Z AUTO 32003KT 10SM CLR 17/11 A3000 RMK AO1

More Conditions Fewer Conditions

10-Day Weather Forecast

Almanac

Astronomy

Aug. 22, 2014 Rise Set
Actual Time 6:45 AM MDT 8:33 PM MDT
Civil Twilight 6:13 AM MDT 9:04 PM MDT
Nautical Twilight 5:34 AM MDT 9:43 PM MDT
Astronomical Twilight 4:51 AM MDT 10:25 PM MDT
Moon 4:07 AM MDT 6:46 PM MDT
Length of Visible Light 14h 51m
Length of Day
13h 48m
Tomorrow will be 3m 1s shorter.
Waning Crescent, 7% of the Moon is Illuminated
Today
Waning Crescent
Aug 25
New
Sep 2
First Quarter
Sep 8
Full
Sep 15
Last Quarter

Today's Extremes

State Highs State Lows

Community

WunderPhotos

Upload Photos

1,746,203 photos uploaded!

Nearby

Snow Depth

Station Depth Elevation
Twelvemile Creek 0 in 5600 ft
Daly Creek 2 in 5780 ft
Peterson Meadows 0 in 7200 ft
Barker Lakes 0 in 8250 ft
Darkhorse Lake 0 in 8700 ft

Earthquake Activity

City Distance Mag. Time & Date
No recent earthquake activity has been reported nearby.
Minimum magnitude displayed is 2.5.

Coastal Water Temperatures

Place Temperature
No Stations Reporting

Nearby Weather Stations